Kanazawa — JD3990 — position and weather

sailwx.info

Track history (hours):
 
Tides and Currents Weather Stations Pressure Air Temp Water Temp Dewpoint Dewpoint Depression Visibility Wind Speed Wind Dir Waves Ship Positions

Kanazawa

Last reported at 2017-Dec-10 11:48 UTC. Time now 2017-Dec-13 19:01 UTC.
Position N 34°00' E 131°51'.

Length 75 m; draft 4.2 m.

Type: Cargo ship. MMSI: 431007657.

Date/timePositionNaut miles runAvg speedWind from/ knotsBaromVisibWave heightAir tempDewpointWater temp
2017-Dec-10 11:48N 34°00' E 131°51'0 0.0
2017-Dec-08 08:12N 34°00' E 131°51'0 0.5
2017-Dec-08 08:00N 34°00' E 131°51'5 9.3
2017-Dec-08 07:30N 33°58' E 131°46'5 9.9
2017-Dec-08 07:00N 34°03' E 131°47'0 0.0
2017-Dec-07 22:41N 34°03' E 131°47'0 0.8
2017-Dec-07 22:25N 34°03' E 131°47'3 7.6
2017-Dec-07 21:59N 34°00' E 131°45'510.9
2017-Dec-07 21:30N 33°56' E 131°48'612.0
2017-Dec-07 21:00N 33°52' E 131°54'711.8
2017-Dec-07 20:24N 33°47' E 132°00'410.5
2017-Dec-07 20:00N 33°47' E 132°05'713.1
2017-Dec-07 19:27N 33°50' E 132°13'613.0
2017-Dec-07 19:00N 33°50' E 132°20'612.9
2017-Dec-07 18:30N 33°53' E 132°27'713.4
2017-Dec-07 18:00N 33°58' E 132°33'713.1
2017-Dec-07 17:30N 34°02' E 132°39'7411.5
2017-Dec-07 11:05N 34°27' E 134°03'912.2
2017-Dec-07 10:21N 34°25' E 134°13'511.9
2017-Dec-07 09:57N 34°24' E 134°19'512.2
2017-Dec-07 09:30N 34°22' E 134°25'612.2
2017-Dec-07 09:00N 34°19' E 134°32'712.2
2017-Dec-07 08:26N 34°15' E 134°39'610.8
2017-Dec-07 07:52N 34°10' E 134°43'411.0
2017-Dec-07 07:30N 34°07' E 134°46'711.6
2017-Dec-07 06:57N 34°02' E 134°51'511.4
2017-Dec-07 06:30N 33°58' E 134°56'611.7
2017-Dec-07 06:00N 33°54' E 134°60'  
2017-Dec-03 14:48N 35°01' E 140°11'412.5
2017-Dec-03 14:27N 34°58' E 140°07'612.3
2017-Dec-03 13:58N 34°55' E 140°01'812.8
2017-Dec-03 13:20N 34°51' E 139°52'1211.8
2017-Dec-03 12:18N 34°50' E 139°37'413.0
2017-Dec-03 12:00N 34°50' E 139°33'913.4
2017-Dec-03 11:21N 34°49' E 139°22'513.8
2017-Dec-03 10:58N 34°47' E 139°16'814.4
2017-Dec-03 10:24N 34°42' E 139°08'512.9
2017-Dec-03 10:00N 34°39' E 139°03'612.8
2017-Dec-03 09:30N 34°35' E 138°57'713.3
2017-Dec-03 09:00N 34°36' E 138°48'612.2
2017-Dec-03 08:29N 34°40' E 138°44'611.3
2017-Dec-03 08:00N 34°46' E 138°41'611.0
2017-Dec-03 07:30N 34°51' E 138°38'611.6
2017-Dec-03 07:00N 34°56' E 138°35'612.0
2017-Dec-03 06:30N 35°01' E 138°32'2 4.5
2017-Dec-03 06:00N 35°01' E 138°30'0 0.0
2017-Dec-03 04:28N 35°01' E 138°30'0 0.0
2017-Dec-02 22:32N 35°01' E 138°30'0 0.0
2017-Dec-02 22:30N 35°01' E 138°30'1 1.8
2017-Dec-02 22:00N 35°01' E 138°31'0 0.0
2017-Dec-02 21:28N 35°01' E 138°31'0 0.0
2017-Dec-02 20:58N 35°01' E 138°31'0 0.0
2017-Dec-02 20:28N 35°01' E 138°31'0 0.0
2017-Dec-02 19:58N 35°01' E 138°31'0 0.0
2017-Dec-02 19:28N 35°01' E 138°31'0 0.0
2017-Dec-02 18:58N 35°01' E 138°31'0 0.0
2017-Dec-02 18:28N 35°01' E 138°31'0 0.1
2017-Dec-02 17:58N 35°01' E 138°31'0 0.1
2017-Dec-02 17:28N 35°01' E 138°31'0 0.1
2017-Dec-02 16:58N 35°01' E 138°31'0 0.0
2017-Dec-02 16:28N 35°01' E 138°31'0 0.0
2017-Dec-02 15:58N 35°01' E 138°31'0 0.0
2017-Dec-02 15:28N 35°01' E 138°31'0 0.0
2017-Dec-02 14:58N 35°01' E 138°31'0 0.0
2017-Dec-02 14:28N 35°01' E 138°31'0 0.0
2017-Dec-02 13:58N 35°01' E 138°31'0 0.0
2017-Dec-02 13:28N 35°01' E 138°31'0 0.0
2017-Dec-02 12:58N 35°01' E 138°31'0 0.0
2017-Dec-02 12:28N 35°01' E 138°31'0 0.4
2017-Dec-02 12:00N 35°01' E 138°31'510.2
2017-Dec-02 11:30N 34°57' E 138°35'713.1
2017-Dec-02 10:59N 34°51' E 138°38'713.9
2017-Dec-02 10:30N 34°45' E 138°41'714.1
2017-Dec-02 10:01N 34°39' E 138°45'810.8
2017-Dec-02 09:15N 34°36' E 138°54'312.0
2017-Dec-02 09:00N 34°37' E 138°57'612.7
2017-Dec-02 08:30N 34°41' E 139°03'712.4
2017-Dec-02 07:57N 34°45' E 139°10'512.1
2017-Dec-02 07:30N 34°49' E 139°15'611.7
2017-Dec-02 07:00N 34°52' E 139°21'611.2
2017-Dec-02 06:30N 34°55' E 139°26'611.8
2017-Dec-02 06:00N 34°59' E 139°31'612.0
2017-Dec-02 05:30N 35°03' E 139°37'713.1
2017-Dec-02 05:00N 35°07' E 139°43'612.8
2017-Dec-02 04:30N 35°13' E 139°46'612.3
2017-Dec-02 04:00N 35°19' E 139°43'611.8
2017-Dec-02 03:30N 35°25' E 139°43'612.9
2017-Dec-02 03:00N 35°28' E 139°50'612.1
2017-Dec-02 02:30N 35°34' E 139°51'4 8.5
2017-Dec-02 02:00N 35°37' E 139°48'0 0.0
2017-Dec-02 01:00N 35°37' E 139°48'0 0.0
2017-Dec-02 00:19N 35°37' E 139°48'0 0.0
2017-Dec-01 23:55N 35°37' E 139°48'0 0.0
2017-Dec-01 23:25N 35°37' E 139°48'0 0.0
2017-Dec-01 22:55N 35°37' E 139°48'0 0.0
2017-Dec-01 22:25N 35°37' E 139°48'0 0.1
2017-Dec-01 22:00N 35°37' E 139°48'3 6.5
2017-Dec-01 21:30N 35°35' E 139°51'1 2.2
2017-Dec-01 20:59N 35°35' E 139°52'0 0.0
2017-Dec-01 20:29N 35°35' E 139°52'0 0.0
2017-Dec-01 19:59N 35°35' E 139°52'0 0.0
2017-Dec-01 19:29N 35°35' E 139°52'0 0.0
2017-Dec-01 18:59N 35°35' E 139°52'0 0.0
2017-Dec-01 18:29N 35°35' E 139°52'0 0.0
2017-Dec-01 17:59N 35°35' E 139°52'0 0.0
2017-Dec-01 17:29N 35°35' E 139°52'0 0.0
2017-Dec-01 16:59N 35°35' E 139°52'0 0.0
2017-Dec-01 16:29N 35°35' E 139°52'0 0.0
2017-Dec-01 15:59N 35°35' E 139°52'0 0.0
2017-Dec-01 15:29N 35°35' E 139°52'1 1.1
2017-Dec-01 15:00N 35°34' E 139°52'510.9
2017-Dec-01 14:30N 35°29' E 139°51'611.7
2017-Dec-01 14:00N 35°24' E 139°46'612.2
2017-Dec-01 13:30N 35°19' E 139°44'611.3
2017-Dec-01 13:00N 35°13' E 139°47'611.5
2017-Dec-01 12:30N 35°08' E 139°45'611.6
2017-Dec-01 12:00N 35°03' E 139°41'612.3
2017-Dec-01 11:30N 34°59' E 139°35'714.1
2017-Dec-01 11:00N 34°55' E 139°28'713.6
2017-Dec-01 10:30N 34°52' E 139°21'813.4
2017-Dec-01 09:53N 34°46' E 139°13'613.2
2017-Dec-01 09:24N 34°42' E 139°07'512.5
2017-Dec-01 08:59N 34°39' E 139°02'612.7
2017-Dec-01 08:31N 34°36' E 138°56'713.7
2017-Dec-01 08:01N 34°34' E 138°48'713.4
2017-Dec-01 07:29N 34°32' E 138°40'713.6
2017-Dec-01 07:00N 34°30' E 138°32'813.2
2017-Dec-01 06:25N 34°29' E 138°23'17210.8
2017-Nov-30 14:34N 33°52' E 135°01'213.3
2017-Nov-30 14:27N 33°53' E 134°60'612.9
2017-Nov-30 14:00N 33°57' E 134°55'713.3
2017-Nov-30 13:30N 34°03' E 134°50'713.4
2017-Nov-30 13:00N 34°08' E 134°45'713.7
2017-Nov-30 12:30N 34°13' E 134°40'613.0
2017-Nov-30 12:00N 34°19' E 134°38'  
Track history (hours):
 
Tides and Currents Weather Stations Pressure Air Temp Water Temp Dewpoint Dewpoint Depression Visibility Wind Speed Wind Dir Waves Ship Positions

Kanazawa

Last reported at 2017-Dec-10 11:48 UTC. Time now 2017-Dec-13 19:01 UTC.
Position N 34°00' E 131°51'.

Length 75 m; draft 4.2 m.

Type: Cargo ship. MMSI: 431007657.

Date/timePositionNaut miles runAvg speedWind from/ knotsBaromVisibWave heightAir tempDewpointWater temp
2017-Dec-10 11:48N 34°00' E 131°51'0 0.0
2017-Dec-08 08:12N 34°00' E 131°51'0 0.5
2017-Dec-08 08:00N 34°00' E 131°51'5 9.3
2017-Dec-08 07:30N 33°58' E 131°46'5 9.9
2017-Dec-08 07:00N 34°03' E 131°47'0 0.0
2017-Dec-07 22:41N 34°03' E 131°47'0 0.8
2017-Dec-07 22:25N 34°03' E 131°47'3 7.6
2017-Dec-07 21:59N 34°00' E 131°45'510.9
2017-Dec-07 21:30N 33°56' E 131°48'612.0
2017-Dec-07 21:00N 33°52' E 131°54'711.8
2017-Dec-07 20:24N 33°47' E 132°00'410.5
2017-Dec-07 20:00N 33°47' E 132°05'713.1
2017-Dec-07 19:27N 33°50' E 132°13'613.0
2017-Dec-07 19:00N 33°50' E 132°20'612.9
2017-Dec-07 18:30N 33°53' E 132°27'713.4
2017-Dec-07 18:00N 33°58' E 132°33'713.1
2017-Dec-07 17:30N 34°02' E 132°39'7411.5
2017-Dec-07 11:05N 34°27' E 134°03'912.2
2017-Dec-07 10:21N 34°25' E 134°13'511.9
2017-Dec-07 09:57N 34°24' E 134°19'512.2
2017-Dec-07 09:30N 34°22' E 134°25'612.2
2017-Dec-07 09:00N 34°19' E 134°32'712.2
2017-Dec-07 08:26N 34°15' E 134°39'610.8
2017-Dec-07 07:52N 34°10' E 134°43'411.0
2017-Dec-07 07:30N 34°07' E 134°46'711.6
2017-Dec-07 06:57N 34°02' E 134°51'511.4
2017-Dec-07 06:30N 33°58' E 134°56'611.7
2017-Dec-07 06:00N 33°54' E 134°60'  
2017-Dec-03 14:48N 35°01' E 140°11'412.5
2017-Dec-03 14:27N 34°58' E 140°07'612.3
2017-Dec-03 13:58N 34°55' E 140°01'812.8
2017-Dec-03 13:20N 34°51' E 139°52'1211.8
2017-Dec-03 12:18N 34°50' E 139°37'413.0
2017-Dec-03 12:00N 34°50' E 139°33'913.4
2017-Dec-03 11:21N 34°49' E 139°22'513.8
2017-Dec-03 10:58N 34°47' E 139°16'814.4
2017-Dec-03 10:24N 34°42' E 139°08'512.9
2017-Dec-03 10:00N 34°39' E 139°03'612.8
2017-Dec-03 09:30N 34°35' E 138°57'713.3
2017-Dec-03 09:00N 34°36' E 138°48'612.2
2017-Dec-03 08:29N 34°40' E 138°44'611.3
2017-Dec-03 08:00N 34°46' E 138°41'611.0
2017-Dec-03 07:30N 34°51' E 138°38'611.6
2017-Dec-03 07:00N 34°56' E 138°35'612.0
2017-Dec-03 06:30N 35°01' E 138°32'2 4.5
2017-Dec-03 06:00N 35°01' E 138°30'0 0.0
2017-Dec-03 04:28N 35°01' E 138°30'0 0.0
2017-Dec-02 22:32N 35°01' E 138°30'0 0.0
2017-Dec-02 22:30N 35°01' E 138°30'1 1.8
2017-Dec-02 22:00N 35°01' E 138°31'0 0.0
2017-Dec-02 21:28N 35°01' E 138°31'0 0.0
2017-Dec-02 20:58N 35°01' E 138°31'0 0.0
2017-Dec-02 20:28N 35°01' E 138°31'0 0.0
2017-Dec-02 19:58N 35°01' E 138°31'0 0.0
2017-Dec-02 19:28N 35°01' E 138°31'0 0.0
2017-Dec-02 18:58N 35°01' E 138°31'0 0.0
2017-Dec-02 18:28N 35°01' E 138°31'0 0.1
2017-Dec-02 17:58N 35°01' E 138°31'0 0.1
2017-Dec-02 17:28N 35°01' E 138°31'0 0.1
2017-Dec-02 16:58N 35°01' E 138°31'0 0.0
2017-Dec-02 16:28N 35°01' E 138°31'0 0.0
2017-Dec-02 15:58N 35°01' E 138°31'0 0.0
2017-Dec-02 15:28N 35°01' E 138°31'0 0.0
2017-Dec-02 14:58N 35°01' E 138°31'0 0.0
2017-Dec-02 14:28N 35°01' E 138°31'0 0.0
2017-Dec-02 13:58N 35°01' E 138°31'0 0.0
2017-Dec-02 13:28N 35°01' E 138°31'0 0.0
2017-Dec-02 12:58N 35°01' E 138°31'0 0.0
2017-Dec-02 12:28N 35°01' E 138°31'0 0.4
2017-Dec-02 12:00N 35°01' E 138°31'510.2
2017-Dec-02 11:30N 34°57' E 138°35'713.1
2017-Dec-02 10:59N 34°51' E 138°38'713.9
2017-Dec-02 10:30N 34°45' E 138°41'714.1
2017-Dec-02 10:01N 34°39' E 138°45'810.8
2017-Dec-02 09:15N 34°36' E 138°54'312.0
2017-Dec-02 09:00N 34°37' E 138°57'612.7
2017-Dec-02 08:30N 34°41' E 139°03'712.4
2017-Dec-02 07:57N 34°45' E 139°10'512.1
2017-Dec-02 07:30N 34°49' E 139°15'611.7
2017-Dec-02 07:00N 34°52' E 139°21'611.2
2017-Dec-02 06:30N 34°55' E 139°26'611.8
2017-Dec-02 06:00N 34°59' E 139°31'612.0
2017-Dec-02 05:30N 35°03' E 139°37'713.1
2017-Dec-02 05:00N 35°07' E 139°43'612.8
2017-Dec-02 04:30N 35°13' E 139°46'612.3
2017-Dec-02 04:00N 35°19' E 139°43'611.8
2017-Dec-02 03:30N 35°25' E 139°43'612.9
2017-Dec-02 03:00N 35°28' E 139°50'612.1
2017-Dec-02 02:30N 35°34' E 139°51'4 8.5
2017-Dec-02 02:00N 35°37' E 139°48'0 0.0
2017-Dec-02 01:00N 35°37' E 139°48'0 0.0
2017-Dec-02 00:19N 35°37' E 139°48'0 0.0
2017-Dec-01 23:55N 35°37' E 139°48'0 0.0
2017-Dec-01 23:25N 35°37' E 139°48'0 0.0
2017-Dec-01 22:55N 35°37' E 139°48'0 0.0
2017-Dec-01 22:25N 35°37' E 139°48'0 0.1
2017-Dec-01 22:00N 35°37' E 139°48'3 6.5
2017-Dec-01 21:30N 35°35' E 139°51'1 2.2
2017-Dec-01 20:59N 35°35' E 139°52'0 0.0
2017-Dec-01 20:29N 35°35' E 139°52'0 0.0
2017-Dec-01 19:59N 35°35' E 139°52'0 0.0
2017-Dec-01 19:29N 35°35' E 139°52'0 0.0
2017-Dec-01 18:59N 35°35' E 139°52'0 0.0
2017-Dec-01 18:29N 35°35' E 139°52'0 0.0
2017-Dec-01 17:59N 35°35' E 139°52'0 0.0
2017-Dec-01 17:29N 35°35' E 139°52'0 0.0
2017-Dec-01 16:59N 35°35' E 139°52'0 0.0
2017-Dec-01 16:29N 35°35' E 139°52'0 0.0
2017-Dec-01 15:59N 35°35' E 139°52'0 0.0
2017-Dec-01 15:29N 35°35' E 139°52'1 1.1
2017-Dec-01 15:00N 35°34' E 139°52'510.9
2017-Dec-01 14:30N 35°29' E 139°51'611.7
2017-Dec-01 14:00N 35°24' E 139°46'612.2
2017-Dec-01 13:30N 35°19' E 139°44'611.3
2017-Dec-01 13:00N 35°13' E 139°47'611.5
2017-Dec-01 12:30N 35°08' E 139°45'611.6
2017-Dec-01 12:00N 35°03' E 139°41'612.3
2017-Dec-01 11:30N 34°59' E 139°35'714.1
2017-Dec-01 11:00N 34°55' E 139°28'713.6
2017-Dec-01 10:30N 34°52' E 139°21'813.4
2017-Dec-01 09:53N 34°46' E 139°13'613.2
2017-Dec-01 09:24N 34°42' E 139°07'512.5
2017-Dec-01 08:59N 34°39' E 139°02'612.7
2017-Dec-01 08:31N 34°36' E 138°56'713.7
2017-Dec-01 08:01N 34°34' E 138°48'713.4
2017-Dec-01 07:29N 34°32' E 138°40'713.6
2017-Dec-01 07:00N 34°30' E 138°32'813.2
2017-Dec-01 06:25N 34°29' E 138°23'17210.8
2017-Nov-30 14:34N 33°52' E 135°01'213.3
2017-Nov-30 14:27N 33°53' E 134°60'612.9
2017-Nov-30 14:00N 33°57' E 134°55'713.3
2017-Nov-30 13:30N 34°03' E 134°50'713.4
2017-Nov-30 13:00N 34°08' E 134°45'713.7
2017-Nov-30 12:30N 34°13' E 134°40'613.0
2017-Nov-30 12:00N 34°19' E 134°38'  

Dump ship's entire track history